Time;durP1;ratioP1;P1;durP2;ratioP2;P2;SDS_P1;SDS_P2;PMS_P1;PMS_P2;Temp;Humidity;BMP_temperature;BMP_pressure;BME280_temperature;BME280_humidity;BME280_pressure;Samples;Min_cycle;Max_cycle;Signal;HPM_P1;HPM_P2
2024/03/24 00:01:52;;;;;;;8.93;3.53;;;5.90;99.90;;;;;;5043863;28;20048;-61
2024/03/24 00:04:18;;;;;;;13.38;3.67;;;6.00;99.90;;;;;;5039028;28;20044;-61
2024/03/24 00:06:44;;;;;;;8.40;3.50;;;5.90;99.90;;;;;;5040711;28;20400;-62
2024/03/24 00:09:12;;;;;;;9.43;3.38;;;5.90;99.90;;;;;;5075984;28;20454;-62
2024/03/24 00:11:38;;;;;;;6.90;3.58;;;5.90;99.90;;;;;;5040091;28;20499;-62
2024/03/24 00:14:04;;;;;;;11.98;4.10;;;5.90;99.90;;;;;;5041490;28;20451;-61
2024/03/24 00:16:30;;;;;;;8.27;3.90;;;6.00;99.90;;;;;;5041504;28;20041;-61
2024/03/24 00:18:56;;;;;;;7.47;3.45;;;6.00;99.90;;;;;;5032394;28;20041;-61
2024/03/24 00:21:22;;;;;;;5.45;3.10;;;5.90;99.90;;;;;;5044765;28;20045;-62
2024/03/24 00:23:48;;;;;;;6.38;2.92;;;6.00;99.90;;;;;;5041801;28;20036;-63
2024/03/24 00:26:14;;;;;;;4.38;2.88;;;5.90;99.90;;;;;;5039691;28;20069;-61
2024/03/24 00:28:39;;;;;;;6.45;4.10;;;6.00;99.90;;;;;;5036790;28;20508;-61
2024/03/24 00:31:05;;;;;;;7.63;3.53;;;6.00;99.90;;;;;;5040752;28;20126;-61
2024/03/24 00:33:31;;;;;;;7.50;3.60;;;6.00;99.90;;;;;;5035491;28;20582;-62
2024/03/24 00:35:57;;;;;;;7.70;4.28;;;6.00;99.90;;;;;;5044916;28;20036;-61
2024/03/24 00:38:22;;;;;;;5.70;3.63;;;6.00;99.90;;;;;;5034840;28;20048;-62
2024/03/24 00:40:48;;;;;;;6.65;3.85;;;6.10;99.90;;;;;;5037872;28;20045;-62
2024/03/24 00:43:14;;;;;;;10.07;4.13;;;6.00;99.90;;;;;;5033559;28;20095;-62
2024/03/24 00:45:40;;;;;;;9.95;3.67;;;6.00;99.90;;;;;;5042190;28;20410;-61
2024/03/24 00:48:07;;;;;;;6.68;2.90;;;6.00;99.90;;;;;;5043996;28;20186;-62
2024/03/24 00:50:32;;;;;;;5.10;3.35;;;6.00;99.90;;;;;;5041818;28;20063;-62
2024/03/24 00:52:58;;;;;;;7.70;3.50;;;6.00;99.90;;;;;;5042821;28;20503;-64
2024/03/24 00:55:24;;;;;;;6.53;3.35;;;6.10;99.90;;;;;;5044615;28;20159;-62
2024/03/24 00:57:51;;;;;;;9.20;3.30;;;6.00;99.90;;;;;;5042533;28;20453;-62
2024/03/24 01:00:17;;;;;;;5.45;2.97;;;6.10;99.90;;;;;;5044809;28;20522;-62
2024/03/24 01:02:42;;;;;;;6.03;3.13;;;6.00;99.90;;;;;;5045080;28;20037;-61
2024/03/24 01:05:09;;;;;;;5.55;2.58;;;6.00;99.90;;;;;;5046793;28;20449;-62
2024/03/24 01:07:35;;;;;;;7.40;3.28;;;6.00;99.90;;;;;;5042990;28;20102;-61
2024/03/24 01:10:01;;;;;;;10.02;4.38;;;6.00;99.90;;;;;;5043966;28;20040;-61
2024/03/24 01:12:27;;;;;;;8.45;4.43;;;6.00;99.90;;;;;;5042047;28;20102;-61
2024/03/24 01:14:53;;;;;;;7.07;3.50;;;6.00;99.90;;;;;;5042529;28;20051;-61
2024/03/24 01:17:18;;;;;;;7.72;3.53;;;6.10;99.90;;;;;;5037270;28;20049;-62
2024/03/24 01:19:45;;;;;;;9.07;3.40;;;6.00;99.90;;;;;;5037484;28;20148;-61
2024/03/24 01:22:10;;;;;;;7.00;3.70;;;6.00;99.90;;;;;;5037083;28;20215;-62
2024/03/24 01:24:36;;;;;;;9.68;4.30;;;6.00;99.90;;;;;;5047438;28;20162;-62
2024/03/24 01:27:02;;;;;;;10.98;4.47;;;6.00;99.90;;;;;;5039976;28;20523;-61
2024/03/24 01:29:28;;;;;;;10.88;4.35;;;6.00;99.90;;;;;;5046023;28;20518;-62
2024/03/24 01:31:54;;;;;;;10.98;4.35;;;6.10;99.90;;;;;;5042552;28;20214;-62
2024/03/24 01:34:20;;;;;;;9.95;3.95;;;6.10;99.90;;;;;;5051371;28;20534;-61
2024/03/24 01:36:47;;;;;;;8.27;3.72;;;6.10;99.90;;;;;;5054284;28;20053;-62
2024/03/24 01:39:14;;;;;;;5.15;2.58;;;6.10;99.90;;;;;;5045460;28;20105;-62
2024/03/24 01:41:40;;;;;;;6.30;2.53;;;6.10;99.90;;;;;;5034660;28;20140;-62
2024/03/24 01:44:06;;;;;;;6.53;2.20;;;6.20;99.90;;;;;;5042963;28;20071;-62
2024/03/24 01:46:32;;;;;;;4.82;1.83;;;6.20;99.90;;;;;;5038064;28;20025;-62
2024/03/24 01:48:58;;;;;;;3.75;1.55;;;6.00;99.90;;;;;;5045626;28;20621;-62
2024/03/24 01:51:23;;;;;;;2.45;0.93;;;5.90;99.90;;;;;;5038347;28;20317;-63
2024/03/24 01:53:50;;;;;;;1.25;0.75;;;5.90;99.90;;;;;;5039537;28;20051;-62
2024/03/24 01:56:16;;;;;;;2.15;0.90;;;5.90;99.90;;;;;;5039258;28;20041;-61
2024/03/24 01:58:42;;;;;;;3.00;0.60;;;5.80;99.90;;;;;;5042409;28;20098;-62
2024/03/24 02:01:08;;;;;;;0.77;0.70;;;5.80;99.90;;;;;;5040726;28;20044;-62
2024/03/24 02:03:37;;;;;;;2.25;0.82;;;5.80;99.90;;;;;;5040668;28;20036;-62
2024/03/24 02:06:04;;;;;;;2.05;0.82;;;5.80;99.90;;;;;;5039428;28;20508;-62
2024/03/24 02:08:31;;;;;;;0.93;0.70;;;5.80;99.90;;;;;;5041757;28;20126;-62
2024/03/24 02:10:58;;;;;;;1.42;0.80;;;5.80;99.90;;;;;;5044150;28;20049;-62
2024/03/24 02:13:24;;;;;;;4.80;1.42;;;5.80;99.90;;;;;;5044449;28;20727;-62
2024/03/24 02:15:50;;;;;;;4.88;1.33;;;5.80;99.90;;;;;;5040390;28;20040;-62
2024/03/24 02:18:16;;;;;;;6.13;1.20;;;5.90;99.90;;;;;;5041174;28;21724;-62
2024/03/24 02:20:42;;;;;;;2.55;1.25;;;5.80;99.90;;;;;;5047374;28;20045;-62
2024/03/24 02:23:08;;;;;;;2.70;1.27;;;5.80;99.90;;;;;;5033903;28;20680;-62
2024/03/24 02:25:34;;;;;;;6.00;2.00;;;5.80;99.90;;;;;;5041819;28;20375;-62
2024/03/24 02:28:00;;;;;;;3.80;1.33;;;5.90;99.90;;;;;;5030779;28;20514;-62
2024/03/24 02:30:27;;;;;;;4.95;1.35;;;5.80;99.90;;;;;;5042150;28;20120;-62
2024/03/24 02:32:53;;;;;;;3.67;1.50;;;5.70;99.90;;;;;;5035843;28;20056;-61
2024/03/24 02:35:19;;;;;;;2.83;1.23;;;5.70;99.90;;;;;;5035539;28;20782;-61
2024/03/24 02:37:45;;;;;;;5.40;1.48;;;5.60;99.90;;;;;;5059733;28;20043;-62
2024/03/24 02:40:11;;;;;;;4.45;1.40;;;5.60;99.90;;;;;;5037585;28;20047;-61
2024/03/24 02:42:37;;;;;;;3.22;1.30;;;5.50;99.90;;;;;;5034721;28;20607;-61
2024/03/24 02:45:04;;;;;;;5.88;1.45;;;5.50;99.90;;;;;;5046553;28;20041;-61
2024/03/24 02:47:31;;;;;;;2.58;1.50;;;5.50;99.90;;;;;;5045287;28;20120;-61
2024/03/24 02:49:58;;;;;;;4.18;1.40;;;5.60;99.90;;;;;;5039390;28;20072;-61
2024/03/24 02:52:24;;;;;;;4.00;1.30;;;5.60;99.90;;;;;;5040800;28;20041;-61
2024/03/24 02:54:49;;;;;;;6.05;1.65;;;5.60;99.90;;;;;;5043934;28;20037;-61
2024/03/24 02:57:15;;;;;;;8.20;2.30;;;5.60;99.90;;;;;;5036787;28;20083;-61
2024/03/24 02:59:41;;;;;;;5.18;1.58;;;5.60;99.90;;;;;;5039989;28;20120;-61
2024/03/24 03:02:07;;;;;;;6.82;1.90;;;5.60;99.90;;;;;;5035523;28;20408;-62
2024/03/24 03:04:33;;;;;;;4.10;1.58;;;5.60;99.90;;;;;;5038610;28;20571;-62
2024/03/24 03:06:59;;;;;;;10.55;1.90;;;5.70;99.90;;;;;;5038090;28;20033;-61
2024/03/24 03:09:26;;;;;;;8.05;2.30;;;5.60;99.90;;;;;;5041228;28;20404;-62
2024/03/24 03:11:53;;;;;;;9.95;2.40;;;5.70;99.90;;;;;;5043028;28;20492;-61
2024/03/24 03:14:19;;;;;;;9.55;2.08;;;5.60;99.90;;;;;;5027188;28;20047;-61
2024/03/24 03:16:45;;;;;;;7.45;2.30;;;5.60;99.90;;;;;;5031310;28;20132;-61
2024/03/24 03:19:11;;;;;;;9.95;2.10;;;5.60;99.90;;;;;;5037167;28;20116;-61
2024/03/24 03:21:37;;;;;;;5.80;2.10;;;5.70;99.90;;;;;;5040641;28;20037;-61
2024/03/24 03:24:03;;;;;;;5.45;2.00;;;5.70;99.90;;;;;;5043514;28;20537;-61
2024/03/24 03:26:29;;;;;;;10.90;3.08;;;5.70;99.90;;;;;;5036106;28;20451;-62
2024/03/24 03:28:55;;;;;;;7.57;2.72;;;5.70;99.90;;;;;;5041462;28;20120;-62
2024/03/24 03:31:21;;;;;;;11.15;2.58;;;5.70;99.90;;;;;;5043313;28;20040;-61
2024/03/24 03:33:47;;;;;;;8.88;2.50;;;5.60;99.90;;;;;;5036442;28;20047;-62
2024/03/24 03:36:13;;;;;;;11.13;2.60;;;5.70;99.90;;;;;;5039924;28;20063;-61
2024/03/24 03:38:38;;;;;;;7.18;2.70;;;5.70;99.90;;;;;;5041478;28;20033;-62
2024/03/24 03:41:05;;;;;;;14.93;2.60;;;5.80;99.90;;;;;;5038674;28;20040;-61
2024/03/24 03:43:32;;;;;;;8.60;2.60;;;5.80;99.90;;;;;;5039072;28;20047;-61
2024/03/24 03:45:58;;;;;;;8.18;2.65;;;5.80;99.90;;;;;;5042160;28;20337;-62
2024/03/24 03:48:23;;;;;;;7.82;2.60;;;5.80;99.90;;;;;;5038665;28;21028;-61
2024/03/24 03:50:50;;;;;;;8.93;3.05;;;5.80;99.90;;;;;;5041982;28;20480;-61
2024/03/24 03:53:22;;;;;;;9.38;2.45;;;5.90;99.90;;;;;;5037503;28;20048;-62
2024/03/24 03:55:54;;;;;;;6.38;2.03;;;5.80;99.90;;;;;;5038988;28;20591;-61
2024/03/24 03:58:20;;;;;;;10.48;2.70;;;5.90;99.90;;;;;;5041084;28;20091;-62
2024/03/24 04:00:47;;;;;;;8.07;2.30;;;6.00;99.90;;;;;;5033197;28;20049;-61
2024/03/24 04:03:14;;;;;;;7.13;2.05;;;5.90;99.90;;;;;;5039858;28;20048;-61
2024/03/24 04:05:40;;;;;;;12.20;2.53;;;5.90;99.90;;;;;;5038547;28;20130;-62
2024/03/24 04:08:07;;;;;;;2.95;1.60;;;6.00;99.90;;;;;;5039737;28;20051;-62
2024/03/24 04:10:34;;;;;;;4.20;1.90;;;6.00;99.90;;;;;;5037553;28;20138;-62
2024/03/24 04:13:01;;;;;;;6.68;1.55;;;6.00;99.90;;;;;;5039206;28;20496;-61
2024/03/24 04:15:27;;;;;;;6.20;1.67;;;6.00;99.90;;;;;;5035103;28;20509;-62
2024/03/24 04:17:52;;;;;;;3.35;1.58;;;6.00;99.90;;;;;;5044249;28;20048;-61
2024/03/24 04:20:18;;;;;;;5.40;1.73;;;6.00;99.90;;;;;;5044156;28;20431;-62
2024/03/24 04:22:47;;;;;;;7.57;1.77;;;6.00;99.90;;;;;;5043029;28;20116;-62
2024/03/24 04:25:13;;;;;;;6.60;1.70;;;6.00;99.90;;;;;;5043584;28;20040;-62
2024/03/24 04:27:39;;;;;;;5.80;1.83;;;6.10;99.90;;;;;;5043888;28;20056;-61
2024/03/24 04:30:07;;;;;;;6.35;1.70;;;6.00;99.90;;;;;;5041718;28;20051;-62
2024/03/24 04:32:33;;;;;;;4.40;1.58;;;6.10;99.90;;;;;;5045026;28;20636;-62
2024/03/24 04:34:59;;;;;;;2.97;1.60;;;6.10;99.90;;;;;;5038635;28;20096;-61
2024/03/24 04:37:25;;;;;;;4.38;1.50;;;6.00;99.90;;;;;;5044579;28;20126;-62
2024/03/24 04:39:51;;;;;;;4.90;1.88;;;6.00;99.90;;;;;;5041234;28;20053;-62
2024/03/24 04:42:16;;;;;;;7.68;1.75;;;6.00;99.90;;;;;;5044997;28;20037;-62
2024/03/24 04:44:42;;;;;;;4.68;1.60;;;6.00;99.90;;;;;;5042594;28;20033;-61
2024/03/24 04:47:08;;;;;;;5.85;2.15;;;6.00;99.90;;;;;;5048156;28;20037;-61
2024/03/24 04:49:35;;;;;;;4.95;2.05;;;6.00;99.90;;;;;;5049017;28;20385;-62
2024/03/24 04:52:01;;;;;;;7.90;2.67;;;5.90;99.90;;;;;;5043080;28;20504;-61
2024/03/24 04:54:26;;;;;;;8.40;1.92;;;5.90;99.90;;;;;;5044854;28;20051;-61
2024/03/24 04:56:52;;;;;;;8.40;2.00;;;5.90;99.90;;;;;;5045831;28;20041;-62
2024/03/24 04:59:18;;;;;;;7.93;1.85;;;5.80;99.90;;;;;;5042333;28;20048;-62
2024/03/24 05:01:44;;;;;;;6.32;1.88;;;5.70;99.90;;;;;;5047127;28;20060;-61
2024/03/24 05:04:10;;;;;;;5.68;1.90;;;5.70;99.90;;;;;;5041194;28;20047;-61
2024/03/24 05:06:36;;;;;;;8.60;1.75;;;5.70;99.90;;;;;;5043997;28;20036;-61
2024/03/24 05:09:04;;;;;;;9.13;1.88;;;5.70;99.90;;;;;;5043131;28;20074;-61
2024/03/24 05:11:30;;;;;;;6.45;2.03;;;5.50;99.90;;;;;;5043217;28;20086;-61
2024/03/24 05:13:56;;;;;;;12.20;2.42;;;5.50;99.90;;;;;;5043883;28;20045;-61
2024/03/24 05:16:22;;;;;;;12.75;3.03;;;5.60;99.90;;;;;;5047414;28;20434;-61
2024/03/24 05:18:48;;;;;;;9.98;2.15;;;5.50;99.90;;;;;;5041482;28;20037;-61
2024/03/24 05:21:14;;;;;;;11.30;2.40;;;5.50;99.90;;;;;;5044719;28;20056;-62
2024/03/24 05:23:40;;;;;;;13.18;2.20;;;5.50;99.90;;;;;;5043829;28;20443;-62
2024/03/24 05:26:05;;;;;;;9.35;1.85;;;5.50;99.90;;;;;;5045165;28;20045;-61
2024/03/24 05:28:31;;;;;;;6.45;2.17;;;5.40;99.90;;;;;;5041396;28;20103;-61
2024/03/24 05:30:57;;;;;;;5.82;2.45;;;5.40;99.90;;;;;;5047059;28;20587;-61
2024/03/24 05:33:23;;;;;;;12.57;1.90;;;5.50;99.90;;;;;;5041236;28;20043;-62
2024/03/24 05:35:58;;;;;;;6.38;1.80;;;5.40;99.90;;;;;;5043005;28;20728;-61
2024/03/24 05:38:23;;;;;;;10.80;1.92;;;5.60;99.90;;;;;;5040177;28;20106;-62
2024/03/24 05:40:57;;;;;;;8.15;1.80;;;5.60;99.90;;;;;;5039551;28;20093;-61
2024/03/24 05:43:23;;;;;;;9.88;1.83;;;5.60;99.90;;;;;;5041860;28;20037;-62
2024/03/24 05:45:49;;;;;;;9.32;1.85;;;5.50;99.90;;;;;;5037468;28;20044;-61
2024/03/24 05:48:14;;;;;;;10.63;2.33;;;5.70;99.90;;;;;;5039717;28;20029;-61
2024/03/24 05:50:40;;;;;;;7.40;2.35;;;5.60;99.90;;;;;;5040745;28;20033;-61
2024/03/24 05:53:06;;;;;;;10.80;2.25;;;5.70;99.90;;;;;;5046349;28;20127;-61
2024/03/24 05:55:34;;;;;;;9.35;2.40;;;5.80;99.90;;;;;;5039234;28;20048;-61
2024/03/24 05:58:00;;;;;;;7.45;2.30;;;5.70;99.90;;;;;;5041697;28;20186;-62
2024/03/24 06:00:26;;;;;;;12.25;2.40;;;5.80;99.90;;;;;;5042225;28;20079;-62
2024/03/24 06:02:52;;;;;;;14.77;2.45;;;5.80;99.90;;;;;;5046183;28;20476;-62
2024/03/24 06:05:17;;;;;;;14.55;2.85;;;6.00;99.90;;;;;;5042369;28;20567;-62
2024/03/24 06:07:43;;;;;;;11.60;2.25;;;5.90;99.90;;;;;;5039664;28;20040;-61
2024/03/24 06:10:09;;;;;;;13.10;2.50;;;5.90;99.90;;;;;;5042239;28;20076;-61
2024/03/24 06:12:35;;;;;;;11.40;2.15;;;6.00;99.90;;;;;;5042064;28;20542;-62
2024/03/24 06:15:00;;;;;;;11.50;2.17;;;6.10;99.90;;;;;;5043035;28;20040;-61
2024/03/24 06:17:26;;;;;;;11.38;2.53;;;6.10;99.90;;;;;;5042077;28;20045;-62
2024/03/24 06:19:52;;;;;;;17.77;2.83;;;6.20;99.90;;;;;;5041677;28;20079;-61
2024/03/24 06:22:17;;;;;;;13.40;3.22;;;6.20;99.90;;;;;;5039226;28;20059;-62
2024/03/24 06:24:44;;;;;;;11.73;2.83;;;6.20;99.90;;;;;;5041049;28;20074;-61
2024/03/24 06:27:09;;;;;;;17.00;3.13;;;6.30;99.90;;;;;;5054481;28;20121;-61
2024/03/24 06:29:35;;;;;;;14.45;2.47;;;6.30;99.90;;;;;;5043881;28;20756;-61
2024/03/24 06:32:01;;;;;;;7.82;2.40;;;6.20;99.90;;;;;;5037386;28;20466;-62
2024/03/24 06:34:27;;;;;;;14.75;3.28;;;6.30;99.90;;;;;;5042126;28;20075;-62
2024/03/24 06:36:52;;;;;;;12.52;2.58;;;6.20;99.90;;;;;;5040091;28;20447;-62
2024/03/24 06:39:18;;;;;;;14.35;2.50;;;6.30;99.90;;;;;;5041451;28;20040;-62
2024/03/24 06:41:44;;;;;;;14.63;2.53;;;6.30;99.90;;;;;;5037963;28;20408;-62
2024/03/24 06:44:13;;;;;;;12.88;2.97;;;6.40;99.90;;;;;;5043463;28;20057;-62
2024/03/24 06:46:40;;;;;;;13.82;3.20;;;6.40;99.90;;;;;;5041566;28;20037;-62
2024/03/24 06:49:06;;;;;;;8.88;2.47;;;6.40;99.90;;;;;;5041457;28;20120;-62
2024/03/24 06:51:31;;;;;;;5.97;1.75;;;6.40;99.90;;;;;;5044499;28;20119;-61
2024/03/24 06:53:57;;;;;;;8.88;1.77;;;6.30;99.90;;;;;;5035839;28;20333;-62
2024/03/24 06:56:23;;;;;;;8.52;1.38;;;6.30;99.90;;;;;;5044897;28;20037;-61
2024/03/24 06:58:48;;;;;;;13.40;1.95;;;6.20;99.90;;;;;;5045539;28;20045;-61
2024/03/24 07:01:14;;;;;;;7.38;1.42;;;6.30;99.90;;;;;;5042171;28;20613;-61
2024/03/24 07:03:40;;;;;;;9.48;1.42;;;6.20;99.90;;;;;;5037587;28;20040;-62
2024/03/24 07:06:06;;;;;;;10.27;1.42;;;6.20;99.90;;;;;;5042449;28;20052;-61
2024/03/24 07:08:32;;;;;;;6.65;1.52;;;6.30;99.90;;;;;;5034157;28;20475;-61
2024/03/24 07:10:57;;;;;;;15.85;2.28;;;6.30;99.90;;;;;;5043392;28;20036;-61
2024/03/24 07:13:23;;;;;;;10.77;1.88;;;6.30;99.90;;;;;;5034719;28;20704;-61
2024/03/24 07:15:49;;;;;;;9.55;1.63;;;6.50;99.90;;;;;;5048022;28;20041;-61
2024/03/24 07:18:15;;;;;;;8.07;1.95;;;6.40;99.90;;;;;;5043358;28;20040;-62
2024/03/24 07:20:40;;;;;;;11.63;1.70;;;6.50;99.90;;;;;;5040400;28;20103;-61
2024/03/24 07:23:06;;;;;;;9.75;1.77;;;6.60;99.90;;;;;;5043693;28;20482;-62
2024/03/24 07:25:32;;;;;;;9.40;1.60;;;6.60;99.90;;;;;;5040863;28;20630;-61
2024/03/24 07:27:58;;;;;;;5.65;1.38;;;6.70;99.90;;;;;;5031234;28;20064;-62
2024/03/24 07:30:23;;;;;;;8.73;1.42;;;6.90;99.90;;;;;;5045484;28;20097;-62
2024/03/24 07:32:49;;;;;;;7.25;1.50;;;7.10;99.90;;;;;;5038293;28;20033;-62
2024/03/24 07:35:15;;;;;;;10.98;1.90;;;7.40;99.90;;;;;;5056763;28;20041;-61
2024/03/24 07:37:41;;;;;;;13.05;2.22;;;7.40;99.90;;;;;;5040116;28;20041;-61
2024/03/24 07:40:07;;;;;;;8.02;1.90;;;7.40;99.90;;;;;;5036654;28;20047;-61
2024/03/24 07:42:34;;;;;;;11.43;1.77;;;7.40;99.90;;;;;;5039795;28;20087;-61
2024/03/24 07:45:00;;;;;;;12.45;1.50;;;7.30;99.90;;;;;;5038560;28;20037;-62
2024/03/24 07:47:26;;;;;;;11.63;1.77;;;7.20;99.90;;;;;;5037829;28;20092;-61
2024/03/24 07:49:53;;;;;;;6.43;1.38;;;7.20;99.90;;;;;;5039325;28;20519;-61
2024/03/24 07:52:18;;;;;;;7.45;1.58;;;7.10;99.90;;;;;;5033064;28;20045;-62
2024/03/24 07:54:44;;;;;;;7.50;1.27;;;7.00;99.90;;;;;;5059242;28;20044;-61
2024/03/24 07:57:10;;;;;;;7.82;1.35;;;6.90;99.90;;;;;;5044391;28;20098;-62
2024/03/24 07:59:36;;;;;;;8.23;1.20;;;6.90;99.90;;;;;;5042966;28;20041;-61
2024/03/24 08:02:02;;;;;;;7.70;2.38;;;6.90;99.90;;;;;;5044579;28;20045;-61
2024/03/24 08:04:28;;;;;;;7.07;1.95;;;6.90;99.90;;;;;;5041468;28;20030;-61
2024/03/24 08:06:53;;;;;;;7.45;1.63;;;6.90;99.90;;;;;;5039476;28;20567;-62
2024/03/24 08:09:19;;;;;;;6.90;1.35;;;6.80;99.90;;;;;;5044779;28;20037;-61
2024/03/24 08:11:45;;;;;;;11.43;1.40;;;6.80;99.90;;;;;;5045975;28;20340;-61
2024/03/24 08:14:11;;;;;;;9.25;1.40;;;6.90;99.90;;;;;;5050544;28;20045;-61
2024/03/24 08:16:36;;;;;;;6.85;1.48;;;6.80;99.90;;;;;;5043440;28;20153;-62
2024/03/24 08:19:02;;;;;;;10.48;2.05;;;6.80;99.90;;;;;;5045891;28;20498;-62
2024/03/24 08:21:28;;;;;;;7.45;1.65;;;6.90;99.90;;;;;;5040577;28;20056;-61
2024/03/24 08:23:54;;;;;;;6.10;1.02;;;6.70;99.90;;;;;;5043089;28;20037;-61
2024/03/24 08:26:20;;;;;;;5.05;0.98;;;6.80;99.90;;;;;;5041870;28;20025;-61
2024/03/24 08:28:45;;;;;;;6.05;1.17;;;6.80;99.90;;;;;;5044517;28;20044;-61
2024/03/24 08:31:11;;;;;;;7.65;1.63;;;6.80;99.90;;;;;;5043271;28;20476;-61
2024/03/24 08:33:37;;;;;;;4.05;0.95;;;6.80;99.90;;;;;;5042431;28;20691;-62
2024/03/24 08:36:03;;;;;;;7.82;1.25;;;6.70;99.90;;;;;;5038953;28;20542;-62
2024/03/24 08:38:28;;;;;;;4.28;1.20;;;6.80;99.90;;;;;;5038870;28;20387;-61
2024/03/24 08:40:54;;;;;;;5.50;1.10;;;6.70;99.90;;;;;;5042195;28;20256;-63
2024/03/24 08:43:20;;;;;;;5.50;0.90;;;6.70;99.90;;;;;;5041917;28;20045;-62
2024/03/24 08:45:45;;;;;;;5.10;0.80;;;6.70;99.90;;;;;;5039342;28;20071;-62
2024/03/24 08:48:11;;;;;;;8.10;1.75;;;6.70;99.90;;;;;;5043352;28;20035;-63
2024/03/24 08:50:37;;;;;;;13.13;1.58;;;6.80;99.90;;;;;;5038437;28;20495;-64
2024/03/24 08:53:04;;;;;;;8.52;1.50;;;6.80;99.90;;;;;;5042874;28;20140;-64
2024/03/24 08:55:30;;;;;;;7.47;1.30;;;6.70;99.90;;;;;;5037482;28;20504;-62
2024/03/24 08:57:56;;;;;;;9.25;1.13;;;6.80;99.90;;;;;;5039928;28;20150;-62
2024/03/24 09:00:22;;;;;;;14.38;1.58;;;6.80;99.90;;;;;;5043680;28;20151;-63
2024/03/24 09:02:47;;;;;;;10.77;2.08;;;6.80;99.90;;;;;;5039516;28;20037;-63
2024/03/24 09:05:13;;;;;;;8.32;1.48;;;6.80;99.90;;;;;;5039881;28;20037;-62
2024/03/24 09:07:39;;;;;;;12.10;2.20;;;6.80;99.90;;;;;;5044500;28;20116;-63
2024/03/24 09:10:05;;;;;;;12.85;2.30;;;6.90;99.90;;;;;;5046154;28;20040;-63
2024/03/24 09:12:31;;;;;;;18.30;4.00;;;6.80;99.90;;;;;;5042337;28;20047;-63
2024/03/24 09:14:56;;;;;;;10.60;2.45;;;6.90;99.90;;;;;;5039540;28;20045;-63
2024/03/24 09:17:22;;;;;;;13.70;2.65;;;7.00;99.90;;;;;;5040670;28;20055;-62
2024/03/24 09:19:48;;;;;;;15.45;2.30;;;7.00;99.90;;;;;;5041321;28;20060;-62
2024/03/24 09:22:16;;;;;;;13.68;2.83;;;7.20;99.90;;;;;;5044053;28;20658;-63
2024/03/24 09:24:41;;;;;;;19.42;3.25;;;7.20;99.90;;;;;;5041472;28;20107;-62
2024/03/24 09:27:07;;;;;;;18.02;3.25;;;7.40;99.90;;;;;;5043365;28;20048;-63
2024/03/24 09:29:33;;;;;;;18.45;3.90;;;7.60;99.90;;;;;;5043254;28;20464;-63
2024/03/24 09:31:59;;;;;;;19.67;3.50;;;7.90;99.90;;;;;;5039997;28;20033;-62
2024/03/24 09:34:25;;;;;;;21.23;3.75;;;7.80;99.90;;;;;;5046771;28;20041;-62
2024/03/24 09:36:51;;;;;;;13.68;3.25;;;7.80;99.90;;;;;;5040689;28;20051;-62
2024/03/24 09:39:17;;;;;;;17.10;3.78;;;7.80;99.90;;;;;;5045962;28;20051;-62
2024/03/24 09:41:45;;;;;;;15.40;4.00;;;7.80;99.90;;;;;;5042755;28;20041;-62
2024/03/24 09:44:12;;;;;;;14.07;3.13;;;7.70;99.90;;;;;;5042670;28;20052;-63
2024/03/24 09:46:42;;;;;;;13.70;3.15;;;7.70;99.90;;;;;;5039387;28;20033;-62
2024/03/24 09:49:14;;;;;;;23.73;3.50;;;7.80;99.90;;;;;;5042437;28;20083;-62
2024/03/24 09:51:40;;;;;;;16.50;3.50;;;8.00;99.90;;;;;;5035822;28;20040;-62
2024/03/24 09:54:09;;;;;;;23.25;3.78;;;8.00;99.90;;;;;;5037408;28;20094;-62
2024/03/24 09:56:35;;;;;;;;;;;8.10;99.90;;;;;;5042844;28;20504;-62
2024/03/24 09:59:03;;;;;;;17.70;3.58;;;8.10;99.90;;;;;;5042374;28;19924;-62
2024/03/24 10:01:32;;;;;;;19.23;3.50;;;8.20;99.90;;;;;;5043230;28;20045;-62
2024/03/24 10:03:58;;;;;;;19.58;4.05;;;8.20;99.90;;;;;;5038486;28;20418;-62
2024/03/24 10:06:27;;;;;;;14.30;2.88;;;8.20;99.90;;;;;;5040617;28;20033;-63
2024/03/24 10:08:53;;;;;;;10.52;2.78;;;8.20;99.90;;;;;;5045059;28;20107;-62
2024/03/24 10:11:26;;;;;;;10.82;3.03;;;8.40;99.90;;;;;;5040921;28;20568;-62
2024/03/24 10:13:53;;;;;;;15.43;3.03;;;8.70;99.90;;;;;;5046820;28;20158;-62
2024/03/24 10:16:19;;;;;;;17.10;3.25;;;8.90;99.90;;;;;;5036570;28;20032;-62
2024/03/24 10:18:46;;;;;;;14.50;2.88;;;9.00;99.90;;;;;;5036709;28;20053;-62
2024/03/24 10:21:12;;;;;;;10.02;2.45;;;9.10;99.90;;;;;;5044446;28;20082;-62
2024/03/24 10:23:39;;;;;;;11.18;2.95;;;9.00;99.90;;;;;;5041409;28;20570;-62
2024/03/24 10:26:05;;;;;;;11.57;3.13;;;8.90;99.90;;;;;;5037205;28;20040;-62
2024/03/24 10:28:31;;;;;;;17.75;3.20;;;9.00;99.90;;;;;;5041766;28;20116;-63
2024/03/24 10:31:08;;;;;;;14.10;2.60;;;9.10;99.90;;;;;;5039426;28;20519;-62
2024/03/24 10:33:40;;;;;;;16.20;3.10;;;9.60;99.90;;;;;;5041520;28;20128;-62
2024/03/24 10:36:07;;;;;;;15.40;2.78;;;9.70;99.90;;;;;;5030934;28;20053;-62
2024/03/24 10:38:36;;;;;;;16.80;3.15;;;9.60;99.90;;;;;;5039849;28;20488;-62
2024/03/24 10:41:03;;;;;;;;;;;9.50;99.90;;;;;;5038479;28;20042;-62
2024/03/24 10:43:29;;;;;;;19.95;2.50;;;9.30;99.90;;;;;;5035698;28;19966;-63
2024/03/24 10:45:56;;;;;;;17.20;3.13;;;9.40;99.90;;;;;;5037253;28;20086;-62
2024/03/24 10:48:31;;;;;;;11.25;3.08;;;9.40;99.90;;;;;;5043372;28;20037;-62
2024/03/24 10:50:59;;;;;;;18.27;3.53;;;9.40;99.90;;;;;;5038909;28;20538;-62
2024/03/24 10:53:31;;;;;;;17.65;3.30;;;9.40;99.90;;;;;;5042212;28;20126;-62
2024/03/24 10:55:58;;;;;;;14.93;2.28;;;9.50;99.90;;;;;;5043798;28;20036;-62
2024/03/24 10:58:24;;;;;;;15.55;3.65;;;9.70;99.90;;;;;;5037646;28;20373;-63
2024/03/24 11:00:51;;;;;;;13.13;3.05;;;9.80;99.90;;;;;;5040200;28;20127;-62
2024/03/24 11:03:19;;;;;;;20.20;3.40;;;10.20;99.90;;;;;;5041344;28;20040;-62
2024/03/24 11:05:47;;;;;;;20.67;3.88;;;10.40;99.90;;;;;;5041935;28;20037;-62
2024/03/24 11:08:15;;;;;;;15.75;3.25;;;10.40;99.90;;;;;;5040046;28;20037;-63
2024/03/24 11:10:48;;;;;;;17.67;3.22;;;10.30;99.90;;;;;;5042706;28;20037;-62
2024/03/24 11:13:20;;;;;;;22.23;4.28;;;10.20;99.90;;;;;;5035718;28;20041;-62
2024/03/24 11:15:46;;;;;;;14.98;2.72;;;10.10;99.90;;;;;;5041474;28;20043;-62
2024/03/24 11:18:22;;;;;;;18.10;3.72;;;10.00;99.90;;;;;;5041834;28;20530;-62
2024/03/24 11:20:52;;;;;;;15.35;4.63;;;10.00;99.90;;;;;;5044677;28;21040;-63
2024/03/24 11:23:23;;;;;;;20.33;3.67;;;10.20;99.90;;;;;;5039415;28;20049;-62
2024/03/24 11:25:56;;;;;;;13.40;3.08;;;10.20;99.90;;;;;;5034583;28;20042;-62
2024/03/24 11:28:44;;;;;;;18.45;3.63;;;10.30;99.90;;;;;;5035293;28;20641;-62
2024/03/24 11:31:15;;;;;;;12.05;2.33;;;10.40;99.90;;;;;;5038170;28;20040;-63
2024/03/24 11:33:44;;;;;;;12.85;3.13;;;10.60;99.90;;;;;;5038645;28;20044;-62
2024/03/24 11:36:19;;;;;;;13.95;2.70;;;10.60;99.90;;;;;;5042041;28;20076;-62
2024/03/24 11:38:46;;;;;;;17.65;2.75;;;10.60;99.90;;;;;;5036761;28;20331;-62
2024/03/24 11:41:16;;;;;;;10.43;2.20;;;10.70;99.90;;;;;;5041006;28;20052;-63
2024/03/24 11:43:42;;;;;;;17.77;3.55;;;10.70;99.90;;;;;;5039263;28;20037;-62
2024/03/24 11:46:11;;;;;;;14.10;3.35;;;10.50;99.90;;;;;;5041897;28;20051;-62
2024/03/24 11:48:38;;;;;;;14.82;4.15;;;10.20;99.90;;;;;;5042562;28;20059;-62
2024/03/24 11:51:06;;;;;;;18.02;3.58;;;9.90;99.90;;;;;;5034570;28;20444;-62
2024/03/24 11:53:32;;;;;;;19.38;3.65;;;9.70;99.90;;;;;;5042804;28;20045;-61
2024/03/24 11:56:01;;;;;;;17.77;3.25;;;9.70;99.90;;;;;;5036742;28;20061;-61
2024/03/24 11:58:27;;;;;;;18.80;3.67;;;9.70;99.90;;;;;;5039465;28;20040;-61
2024/03/24 12:00:53;;;;;;;19.50;3.22;;;9.70;99.90;;;;;;5037035;28;20044;-61
2024/03/24 12:03:19;;;;;;;19.73;3.88;;;9.70;99.90;;;;;;5038093;28;20079;-60
2024/03/24 12:05:45;;;;;;;16.58;2.75;;;9.50;99.90;;;;;;5038037;28;20519;-61
2024/03/24 12:08:14;;;;;;;13.73;3.03;;;9.30;99.90;;;;;;5034615;28;20125;-61
2024/03/24 12:10:40;;;;;;;;;;;9.00;99.90;;;;;;5041588;28;20438;-61
2024/03/24 12:13:06;;;;;;;10.45;2.10;;;8.80;99.90;;;;;;5039911;28;19928;-61
2024/03/24 12:15:32;;;;;;;10.40;2.13;;;8.80;99.90;;;;;;5032148;28;20578;-61
2024/03/24 12:18:08;;;;;;;10.50;2.13;;;8.40;99.90;;;;;;5040956;28;20041;-62
2024/03/24 12:20:34;;;;;;;5.70;1.40;;;8.40;99.90;;;;;;5036713;28;20068;-61
2024/03/24 12:23:00;;;;;;;7.75;2.13;;;8.30;99.90;;;;;;5038588;28;20045;-62
2024/03/24 12:25:26;;;;;;;7.15;1.75;;;8.20;99.90;;;;;;5040652;28;20521;-61
2024/03/24 12:27:55;;;;;;;4.50;1.50;;;8.40;99.90;;;;;;5041809;28;20068;-62
2024/03/24 12:30:22;;;;;;;10.32;1.90;;;9.00;99.90;;;;;;5038248;28;20075;-61
2024/03/24 12:32:49;;;;;;;14.02;2.70;;;9.10;99.90;;;;;;5041394;28;20120;-61
2024/03/24 12:35:17;;;;;;;10.93;2.60;;;9.00;99.90;;;;;;5035884;28;20470;-62
2024/03/24 12:37:46;;;;;;;16.17;3.05;;;9.00;99.90;;;;;;5032122;28;20071;-62
2024/03/24 12:40:21;;;;;;;;;;;9.10;99.90;;;;;;5066837;28;20496;-62
2024/03/24 12:42:48;;;;;;;15.88;3.75;;;8.90;99.90;;;;;;5041622;28;19979;-63
2024/03/24 12:45:15;;;;;;;10.63;2.30;;;9.00;99.90;;;;;;5042156;28;20069;-61
2024/03/24 12:47:42;;;;;;;12.32;2.70;;;9.20;99.90;;;;;;5042861;28;20051;-61
2024/03/24 12:50:27;;;;;;;15.77;3.20;;;9.10;99.90;;;;;;5047450;28;20147;-61